createdAt,value
2023-04-10T00:01:40.046Z,7.45
2023-04-10T00:04:10.808Z,7.55
2023-04-10T00:06:40.728Z,7.68
2023-04-10T00:09:09.173Z,7.50
2023-04-10T00:11:37.706Z,6.82
2023-04-10T00:14:08.271Z,7.68
2023-04-10T00:16:37.924Z,7.03
2023-04-10T00:19:08.206Z,7.03
2023-04-10T00:21:36.644Z,6.75
2023-04-10T00:24:05.350Z,8.05
2023-04-10T00:26:33.741Z,6.68
2023-04-10T00:29:01.978Z,6.55
2023-04-10T00:31:30.668Z,7.03
2023-04-10T00:34:01.050Z,7.70
2023-04-10T00:36:29.850Z,6.70
2023-04-10T00:38:58.054Z,7.00
2023-04-10T00:41:27.159Z,7.75
2023-04-10T00:43:57.559Z,5.95
2023-04-10T00:46:26.252Z,6.60
2023-04-10T00:48:57.703Z,6.85
2023-04-10T00:51:27.555Z,6.47
2023-04-10T00:53:56.275Z,7.28
2023-04-10T00:56:25.569Z,6.13
2023-04-10T00:58:53.839Z,7.03
2023-04-10T01:01:22.497Z,7.38
2023-04-10T01:03:53.895Z,7.15
2023-04-10T01:06:33.008Z,7.18
2023-04-10T01:09:06.942Z,7.72
2023-04-10T01:11:43.735Z,7.68
2023-04-10T01:14:17.685Z,6.53
2023-04-10T01:16:49.779Z,6.97
2023-04-10T01:19:24.483Z,7.57
2023-04-10T01:21:53.530Z,6.95
2023-04-10T01:24:32.802Z,6.30
2023-04-10T01:27:11.966Z,6.35
2023-04-10T01:29:44.868Z,7.40
2023-04-10T01:32:14.880Z,6.95
2023-04-10T01:34:52.442Z,6.60
2023-04-10T01:37:23.127Z,6.13
2023-04-10T01:39:52.838Z,6.43
2023-04-10T01:42:21.390Z,6.20
2023-04-10T01:44:52.123Z,6.40
2023-04-10T01:47:21.116Z,6.80
2023-04-10T01:49:50.756Z,7.10
2023-04-10T01:52:19.714Z,6.30
2023-04-10T01:54:54.079Z,7.13
2023-04-10T01:57:35.910Z,6.53
2023-04-10T02:00:09.103Z,6.30
2023-04-10T02:02:45.825Z,6.43
2023-04-10T02:05:14.485Z,6.30
2023-04-10T02:07:49.987Z,6.68
2023-04-10T02:10:21.548Z,6.20
2023-04-10T02:12:53.924Z,6.40
2023-04-10T02:15:28.719Z,5.65
2023-04-10T02:18:00.246Z,6.35
2023-04-10T02:20:28.908Z,6.32
2023-04-10T02:22:59.880Z,6.03
2023-04-10T02:25:28.450Z,6.18
2023-04-10T02:27:56.945Z,6.38
2023-04-10T02:30:27.602Z,5.40
2023-04-10T02:32:56.669Z,6.15
2023-04-10T02:35:24.990Z,5.97
2023-04-10T02:37:55.580Z,6.13
2023-04-10T02:40:24.553Z,5.75
2023-04-10T02:43:01.527Z,6.25
2023-04-10T02:45:33.173Z,5.65
2023-04-10T02:48:04.244Z,5.28
2023-04-10T02:50:32.746Z,6.28
2023-04-10T02:53:02.251Z,5.55
2023-04-10T02:55:30.989Z,5.90
2023-04-10T02:58:06.029Z,5.72
2023-04-10T03:00:36.111Z,5.72
2023-04-10T03:03:17.810Z,6.22
2023-04-10T03:05:55.851Z,5.43
2023-04-10T03:08:30.256Z,6.13
2023-04-10T03:10:58.744Z,5.40
2023-04-10T03:13:31.770Z,5.55
2023-04-10T03:16:04.052Z,5.60
2023-04-10T03:18:34.316Z,6.03
2023-04-10T03:21:03.081Z,4.60
2023-04-10T03:23:31.896Z,5.22
2023-04-10T03:26:02.543Z,5.28
2023-04-10T03:28:33.716Z,5.50
2023-04-10T03:31:03.693Z,5.45
2023-04-10T03:33:36.459Z,5.13
2023-04-10T03:36:09.184Z,5.63
2023-04-10T03:38:37.626Z,4.78
2023-04-10T03:41:09.547Z,5.03
2023-04-10T03:43:40.339Z,6.00
2023-04-10T03:46:11.005Z,5.50
2023-04-10T03:48:49.692Z,4.85
2023-04-10T03:51:18.110Z,5.57
2023-04-10T03:53:51.656Z,5.00
2023-04-10T03:56:22.789Z,5.15
2023-04-10T03:58:53.492Z,4.95
2023-04-10T04:01:26.084Z,5.53
2023-04-10T04:04:02.524Z,5.47
2023-04-10T04:06:52.120Z,5.30
2023-04-10T04:09:29.071Z,4.55
2023-04-10T04:12:15.988Z,5.10
2023-04-10T04:14:49.088Z,5.00
2023-04-10T04:17:37.145Z,4.75
2023-04-10T04:20:05.840Z,5.47
2023-04-10T04:22:43.239Z,5.05
2023-04-10T04:25:34.650Z,5.40
2023-04-10T04:28:23.319Z,5.68
2023-04-10T04:31:10.227Z,5.03
2023-04-10T04:34:08.767Z,5.32
2023-04-10T04:37:07.596Z,5.55
2023-04-10T04:39:41.545Z,4.53
2023-04-10T04:42:35.973Z,5.35
2023-04-10T04:45:27.040Z,5.25
2023-04-10T04:48:09.126Z,4.75
2023-04-10T04:51:05.384Z,5.15
2023-04-10T04:53:40.579Z,4.93
2023-04-10T04:56:37.139Z,5.15
2023-04-10T04:59:08.216Z,4.75
2023-04-10T05:01:58.936Z,4.90
2023-04-10T05:04:43.130Z,4.55
2023-04-10T05:07:21.098Z,5.43
2023-04-10T05:10:10.394Z,5.30
2023-04-10T05:12:49.856Z,4.22
2023-04-10T05:15:29.875Z,4.68
2023-04-10T05:18:10.025Z,5.07
2023-04-10T05:20:58.707Z,4.70
2023-04-10T05:23:47.038Z,4.88
2023-04-10T05:26:44.334Z,4.78
2023-04-10T05:29:34.442Z,5.10
2023-04-10T05:32:31.171Z,5.35
2023-04-10T05:35:17.937Z,5.15
2023-04-10T05:38:00.710Z,5.20
2023-04-10T05:40:41.586Z,4.95
2023-04-10T05:43:30.733Z,4.78
2023-04-10T05:46:19.351Z,5.18
2023-04-10T05:48:58.253Z,5.32
2023-04-10T05:51:50.278Z,4.95
2023-04-10T05:54:30.723Z,5.35
2023-04-10T05:57:14.300Z,5.93
2023-04-10T06:00:05.058Z,5.65
2023-04-10T06:02:42.469Z,5.70
2023-04-10T06:05:18.842Z,5.40
2023-04-10T06:07:47.426Z,5.25
2023-04-10T06:10:16.603Z,5.18
2023-04-10T06:12:46.788Z,5.65
2023-04-10T06:15:17.717Z,4.55
2023-04-10T06:17:48.499Z,4.82
2023-04-10T06:20:16.857Z,4.65
2023-04-10T06:22:47.423Z,5.15
2023-04-10T06:25:15.650Z,5.60
2023-04-10T06:27:44.029Z,5.32
2023-04-10T06:30:18.896Z,4.93
2023-04-10T06:32:47.323Z,5.38
2023-04-10T06:35:16.021Z,5.78
2023-04-10T06:37:44.559Z,5.40
2023-04-10T06:40:13.451Z,5.57
2023-04-10T06:42:42.115Z,5.57
2023-04-10T06:45:37.922Z,5.15
2023-04-10T06:48:06.360Z,5.50
2023-04-10T06:50:34.635Z,5.40
2023-04-10T06:53:03.118Z,5.30
2023-04-10T06:55:31.721Z,5.13
2023-04-10T06:58:00.008Z,5.38
2023-04-10T07:00:31.191Z,5.90
2023-04-10T07:03:01.105Z,5.38
2023-04-10T07:05:36.427Z,5.38
2023-04-10T07:08:07.623Z,5.25
2023-04-10T07:10:36.303Z,5.63
2023-04-10T07:13:07.117Z,5.78
2023-04-10T07:15:37.548Z,4.65
2023-04-10T07:18:07.297Z,6.25
2023-04-10T07:20:38.290Z,4.75
2023-04-10T07:23:06.686Z,5.43
2023-04-10T07:25:35.744Z,4.75
2023-04-10T07:28:08.323Z,4.90
2023-04-10T07:30:36.969Z,5.68
2023-04-10T07:33:06.833Z,5.30
2023-04-10T07:35:35.331Z,5.60
2023-04-10T07:38:04.571Z,5.68
2023-04-10T07:40:32.857Z,5.47
2023-04-10T07:43:01.724Z,4.70
2023-04-10T07:45:30.293Z,6.05
2023-04-10T07:48:02.278Z,5.18
2023-04-10T07:50:31.954Z,5.10
2023-04-10T07:53:07.583Z,5.63
2023-04-10T07:55:41.216Z,5.40
2023-04-10T07:58:09.584Z,5.03
2023-04-10T08:00:37.937Z,5.05
2023-04-10T08:03:07.377Z,5.75
2023-04-10T08:05:37.445Z,5.47
2023-04-10T08:08:05.885Z,5.50
2023-04-10T08:10:34.263Z,5.15
2023-04-10T08:13:02.683Z,5.72
2023-04-10T08:15:35.681Z,5.30
2023-04-10T08:18:04.169Z,5.00
2023-04-10T08:20:37.069Z,5.85
2023-04-10T08:23:19.590Z,5.65
2023-04-10T08:25:48.401Z,5.45
2023-04-10T08:28:16.769Z,5.47
2023-04-10T08:30:45.084Z,5.50
2023-04-10T08:33:13.339Z,6.20
2023-04-10T08:35:41.840Z,5.93
2023-04-10T08:38:14.288Z,6.47
2023-04-10T08:40:45.749Z,5.30
2023-04-10T08:43:14.101Z,5.47
2023-04-10T08:45:42.559Z,5.82
2023-04-10T08:48:12.356Z,5.47
2023-04-10T08:50:45.395Z,5.55
2023-04-10T08:53:18.083Z,4.78
2023-04-10T08:55:49.931Z,5.47
2023-04-10T08:58:20.924Z,5.53
2023-04-10T09:00:51.664Z,5.28
2023-04-10T09:03:20.402Z,5.43
2023-04-10T09:05:48.738Z,4.78
2023-04-10T09:08:18.390Z,5.95
2023-04-10T09:10:46.803Z,5.38
2023-04-10T09:13:15.452Z,5.38
2023-04-10T09:16:02.441Z,5.10
2023-04-10T09:18:43.869Z,6.03
2023-04-10T09:21:12.890Z,5.63
2023-04-10T09:23:45.437Z,5.32
2023-04-10T09:26:29.949Z,4.97
2023-04-10T09:28:58.910Z,4.72
2023-04-10T09:31:31.742Z,4.72
2023-04-10T09:34:12.778Z,5.05
2023-04-10T09:36:42.355Z,4.55
2023-04-10T09:39:12.951Z,4.72
2023-04-10T09:41:51.258Z,4.60
2023-04-10T09:44:21.083Z,5.38
2023-04-10T09:46:51.749Z,5.72
2023-04-10T09:49:22.726Z,5.35
2023-04-10T09:51:51.089Z,4.57
2023-04-10T09:54:20.734Z,4.53
2023-04-10T09:56:49.739Z,5.32
2023-04-10T09:59:18.182Z,5.13
2023-04-10T10:01:46.810Z,5.72
2023-04-10T10:04:17.395Z,5.50
2023-04-10T10:06:46.309Z,4.70
2023-04-10T10:09:14.568Z,5.10
2023-04-10T10:11:44.258Z,5.68
2023-04-10T10:14:16.912Z,6.18
2023-04-10T10:16:47.289Z,5.50
2023-04-10T10:19:24.623Z,5.80
2023-04-10T10:22:02.709Z,5.80
2023-04-10T10:24:33.982Z,6.90
2023-04-10T10:27:03.864Z,6.35
2023-04-10T10:29:33.785Z,5.88
2023-04-10T10:32:03.232Z,7.28
2023-04-10T10:34:32.174Z,6.63
2023-04-10T10:37:00.828Z,6.55
2023-04-10T10:39:34.396Z,7.25
2023-04-10T10:42:10.558Z,6.20
2023-04-10T10:44:43.651Z,7.28
2023-04-10T10:47:17.478Z,6.38
2023-04-10T10:49:55.774Z,6.78
2023-04-10T10:52:38.631Z,6.00
2023-04-10T10:55:25.752Z,6.30
2023-04-10T10:57:58.829Z,6.78
2023-04-10T11:00:30.071Z,6.90
2023-04-10T11:03:17.225Z,6.43
2023-04-10T11:05:52.433Z,6.00
2023-04-10T11:08:36.780Z,5.70
2023-04-10T11:11:15.766Z,4.88
2023-04-10T11:14:08.102Z,4.90
2023-04-10T11:16:43.829Z,4.75
2023-04-10T11:19:16.272Z,4.35
2023-04-10T11:22:02.389Z,4.05
2023-04-10T11:24:31.314Z,4.78
2023-04-10T11:27:02.194Z,3.90
2023-04-10T11:29:38.079Z,3.75
2023-04-10T11:32:09.083Z,4.30
2023-04-10T11:34:45.494Z,3.65
2023-04-10T11:37:24.008Z,3.60
2023-04-10T11:40:07.031Z,4.03
2023-04-10T11:42:37.878Z,3.30
2023-04-10T11:45:23.236Z,3.45
2023-04-10T11:47:56.327Z,3.95
2023-04-10T11:50:27.009Z,3.97
2023-04-10T11:52:57.939Z,4.05
2023-04-10T11:55:40.665Z,3.65
2023-04-10T11:58:22.830Z,3.45
2023-04-10T12:01:00.268Z,3.78
2023-04-10T12:03:37.515Z,3.72
2023-04-10T12:06:06.539Z,3.60
2023-04-10T12:08:37.122Z,3.75
2023-04-10T12:11:07.838Z,3.65
2023-04-10T12:13:36.281Z,3.55
2023-04-10T12:16:08.008Z,3.47
2023-04-10T12:18:42.794Z,3.35
2023-04-10T12:21:11.185Z,3.85
2023-04-10T12:23:40.342Z,3.42
2023-04-10T12:26:12.635Z,3.53
2023-04-10T12:28:41.866Z,2.97
2023-04-10T12:31:10.318Z,3.28
2023-04-10T12:33:43.379Z,3.40
2023-04-10T12:36:21.994Z,4.18
2023-04-10T12:38:52.947Z,3.80
2023-04-10T12:41:25.484Z,3.38
2023-04-10T12:43:53.975Z,3.22
2023-04-10T12:46:27.756Z,3.80
2023-04-10T12:48:58.073Z,3.70
2023-04-10T12:51:46.054Z,3.53
2023-04-10T12:54:30.890Z,3.65
2023-04-10T12:56:59.730Z,3.33
2023-04-10T12:59:30.718Z,3.55
2023-04-10T13:01:59.549Z,2.97
2023-04-10T13:04:33.215Z,3.83
2023-04-10T13:07:01.859Z,3.17
2023-04-10T13:09:34.449Z,3.60
2023-04-10T13:12:03.977Z,3.40
2023-04-10T13:14:32.406Z,3.45
2023-04-10T13:17:05.448Z,3.67
2023-04-10T13:19:35.039Z,3.63
2023-04-10T13:22:04.787Z,4.32
2023-04-10T13:24:33.068Z,4.25
2023-04-10T13:27:01.812Z,3.83
2023-04-10T13:29:30.265Z,3.63
2023-04-10T13:32:00.370Z,3.90
2023-04-10T13:34:28.973Z,4.10
2023-04-10T13:37:01.032Z,3.83
2023-04-10T13:39:30.843Z,4.03
2023-04-10T13:42:02.492Z,4.32
2023-04-10T13:44:33.272Z,3.67
2023-04-10T13:47:04.033Z,3.88
2023-04-10T13:49:32.458Z,3.40
2023-04-10T13:52:02.092Z,4.57
2023-04-10T13:54:31.048Z,4.55
2023-04-10T13:57:03.847Z,3.83
2023-04-10T13:59:34.231Z,4.30
2023-04-10T14:02:02.619Z,4.22
2023-04-10T14:04:30.993Z,4.63
2023-04-10T14:07:00.467Z,4.88
2023-04-10T14:09:30.225Z,5.07
2023-04-10T14:11:58.926Z,5.13
2023-04-10T14:14:27.195Z,4.55
2023-04-10T14:16:55.646Z,5.18
2023-04-10T14:19:24.016Z,4.07
2023-04-10T14:21:54.486Z,4.00
2023-04-10T14:24:25.320Z,4.10
2023-04-10T14:26:58.712Z,3.83
2023-04-10T14:32:04.081Z,3.83
2023-04-10T14:34:36.885Z,3.55
2023-04-10T14:37:05.119Z,3.53
2023-04-10T14:39:33.888Z,3.90
2023-04-10T14:42:05.804Z,3.47
2023-04-10T14:44:36.636Z,3.78
2023-04-10T14:47:06.372Z,3.47
2023-04-10T14:49:34.736Z,3.78
2023-04-10T14:52:05.219Z,4.38
2023-04-10T14:54:39.716Z,4.72
2023-04-10T14:57:15.084Z,4.80
2023-04-10T14:59:45.836Z,5.15
2023-04-10T15:02:14.311Z,5.38
2023-04-10T15:04:42.578Z,4.55
2023-04-10T15:07:11.022Z,4.78
2023-04-10T15:09:40.583Z,4.28
2023-04-10T15:12:10.186Z,4.75
2023-04-10T15:14:43.112Z,4.60
2023-04-10T15:17:11.457Z,4.32
2023-04-10T15:19:39.777Z,4.85
2023-04-10T15:22:08.039Z,5.70
2023-04-10T15:24:46.886Z,4.57
2023-04-10T15:27:20.539Z,5.00
2023-04-10T15:29:48.993Z,4.70
2023-04-10T15:32:19.720Z,4.60
2023-04-10T15:34:48.063Z,4.32
2023-04-10T15:37:16.440Z,4.18
2023-04-10T15:39:47.020Z,5.03
2023-04-10T15:42:16.077Z,4.53
2023-04-10T15:44:49.192Z,4.07
2023-04-10T15:47:17.763Z,5.20
2023-04-10T15:49:46.062Z,4.30
2023-04-10T15:52:16.638Z,3.95
2023-04-10T15:54:45.079Z,4.47
2023-04-10T15:57:15.855Z,4.72
2023-04-10T15:59:45.495Z,4.20
2023-04-10T16:02:13.992Z,3.80
2023-04-10T16:04:42.569Z,4.03
2023-04-10T16:07:13.238Z,4.30
2023-04-10T16:09:43.827Z,3.92
2023-04-10T16:12:12.761Z,3.88
2023-04-10T16:14:41.055Z,2.70
2023-04-10T16:17:10.851Z,3.40
2023-04-10T16:19:39.215Z,3.42
2023-04-10T16:22:07.600Z,3.03
2023-04-10T16:24:38.198Z,3.47
2023-04-10T16:27:08.258Z,3.63
2023-04-10T16:29:36.590Z,4.35
2023-04-10T16:32:04.964Z,4.55
2023-04-10T16:34:34.598Z,4.40
2023-04-10T16:37:02.918Z,3.40
2023-04-10T16:39:31.602Z,3.65
2023-04-10T16:42:03.410Z,4.45
2023-04-10T16:44:31.706Z,4.10
2023-04-10T16:47:02.522Z,3.92
2023-04-10T16:49:31.409Z,4.05
2023-04-10T16:52:00.952Z,4.32
2023-04-10T16:54:29.569Z,3.78
2023-04-10T16:56:57.969Z,3.78
2023-04-10T16:59:26.250Z,3.53
2023-04-10T17:01:54.635Z,4.70
2023-04-10T17:04:26.005Z,4.53
2023-04-10T17:06:54.411Z,3.95
2023-04-10T17:09:24.004Z,4.30
2023-04-10T17:11:53.319Z,3.67
2023-04-10T17:14:21.835Z,3.60
2023-04-10T17:16:50.418Z,3.45
2023-04-10T17:19:18.723Z,4.28
2023-04-10T17:21:46.980Z,4.30
2023-04-10T17:24:17.829Z,3.95
2023-04-10T17:26:47.589Z,3.70
2023-04-10T17:29:15.869Z,4.00
2023-04-10T17:31:46.373Z,3.00
2023-04-10T17:34:17.125Z,3.17
2023-04-10T17:36:49.271Z,2.63
2023-04-10T17:39:17.712Z,3.38
2023-04-10T17:41:45.927Z,3.53
2023-04-10T17:44:15.535Z,3.42
2023-04-10T17:46:43.903Z,3.17
2023-04-10T17:49:16.696Z,3.63
2023-04-10T17:51:47.319Z,3.53
2023-04-10T17:54:18.136Z,3.63
2023-04-10T17:56:46.498Z,3.13
2023-04-10T17:59:20.497Z,3.25
2023-04-10T18:01:49.267Z,2.40
2023-04-10T18:04:17.737Z,3.05
2023-04-10T18:06:46.184Z,3.80
2023-04-10T18:09:14.574Z,3.25
2023-04-10T18:11:42.842Z,2.38
2023-04-10T18:14:11.783Z,2.97
2023-04-10T18:16:41.510Z,2.80
2023-04-10T18:19:09.984Z,3.22
2023-04-10T18:21:41.954Z,2.90
2023-04-10T18:24:12.068Z,2.88
2023-04-10T18:26:42.572Z,2.88
2023-04-10T18:29:11.227Z,3.03
2023-04-10T18:31:40.968Z,3.05
2023-04-10T18:34:11.711Z,2.80
2023-04-10T18:36:42.260Z,2.80
2023-04-10T18:39:12.955Z,2.92
2023-04-10T18:41:41.151Z,3.35
2023-04-10T18:44:13.751Z,2.25
2023-04-10T18:46:46.318Z,2.95
2023-04-10T18:49:17.039Z,2.58
2023-04-10T18:51:45.629Z,2.00
2023-04-10T18:54:13.910Z,2.30
2023-04-10T18:56:44.409Z,2.40
2023-04-10T18:59:12.791Z,2.15
2023-04-10T19:01:43.588Z,2.05
2023-04-10T19:04:21.909Z,2.47
2023-04-10T19:06:54.547Z,2.40
2023-04-10T19:09:28.268Z,2.50
2023-04-10T19:11:56.668Z,2.47
2023-04-10T19:14:25.176Z,2.17
2023-04-10T19:16:55.950Z,2.83
2023-04-10T19:19:25.644Z,2.00
2023-04-10T19:21:53.871Z,2.33
2023-04-10T19:24:24.432Z,2.10
2023-04-10T19:26:55.173Z,2.80
2023-04-10T19:29:25.014Z,2.03
2023-04-10T19:31:55.455Z,2.10
2023-04-10T19:34:23.868Z,2.63
2023-04-10T19:36:56.100Z,2.00
2023-04-10T19:39:26.633Z,2.20
2023-04-10T19:41:56.358Z,2.47
2023-04-10T19:44:27.405Z,2.83
2023-04-10T19:46:55.891Z,1.77
2023-04-10T19:49:24.554Z,2.45
2023-04-10T19:52:01.759Z,2.55
2023-04-10T19:54:30.293Z,2.00
2023-04-10T19:56:59.189Z,2.88
2023-04-10T19:59:27.487Z,2.42
2023-04-10T20:02:00.772Z,2.35
2023-04-10T20:04:31.342Z,2.10
2023-04-10T20:07:01.794Z,2.40
2023-04-10T20:09:30.219Z,2.13
2023-04-10T20:11:58.562Z,1.73
2023-04-10T20:14:26.930Z,2.05
2023-04-10T20:16:55.301Z,2.90
2023-04-10T20:19:23.520Z,2.05
2023-04-10T20:21:51.978Z,2.20
2023-04-10T20:24:24.973Z,1.90
2023-04-10T20:26:53.407Z,2.22
2023-04-10T20:29:23.920Z,1.92
2023-04-10T20:31:54.489Z,1.65
2023-04-10T20:34:22.931Z,2.00
2023-04-10T20:36:51.242Z,2.40
2023-04-10T20:39:19.508Z,1.52
2023-04-10T20:41:49.208Z,2.15
2023-04-10T20:44:17.633Z,2.25
2023-04-10T20:46:50.191Z,2.38
2023-04-10T20:49:19.076Z,1.70
2023-04-10T20:51:47.308Z,2.42
2023-04-10T20:54:19.126Z,1.70
2023-04-10T20:56:48.805Z,2.40
2023-04-10T20:59:17.117Z,1.40
2023-04-10T21:01:52.027Z,1.88
2023-04-10T21:04:20.947Z,2.25
2023-04-10T21:06:49.131Z,2.80
2023-04-10T21:09:17.439Z,2.58
2023-04-10T21:11:50.041Z,2.20
2023-04-10T21:14:19.645Z,1.85
2023-04-10T21:16:48.279Z,1.92
2023-04-10T21:19:16.642Z,1.95
2023-04-10T21:21:44.885Z,3.05
2023-04-10T21:24:13.181Z,2.08
2023-04-10T21:26:41.717Z,2.42
2023-04-10T21:29:10.016Z,2.20
2023-04-10T21:31:39.720Z,2.40
2023-04-10T21:34:08.056Z,2.70
2023-04-10T21:36:36.422Z,2.58
2023-04-10T21:39:09.214Z,2.20
2023-04-10T21:41:37.642Z,2.00
2023-04-10T21:44:08.722Z,2.38
2023-04-10T21:46:36.966Z,2.08
2023-04-10T21:49:06.547Z,1.88
2023-04-10T21:51:34.920Z,1.42
2023-04-10T21:54:03.141Z,1.33
2023-04-10T21:56:31.892Z,0.60
2023-04-10T21:59:09.411Z,0.68
2023-04-10T22:01:37.857Z,1.15
2023-04-10T22:04:07.820Z,1.30
2023-04-10T22:06:38.992Z,0.70
2023-04-10T22:09:07.371Z,0.93
2023-04-10T22:11:38.987Z,1.50
2023-04-10T22:14:15.412Z,0.60
2023-04-10T22:16:48.348Z,1.40
2023-04-10T22:19:25.733Z,1.40
2023-04-10T22:21:56.792Z,1.08
2023-04-10T22:24:25.016Z,0.95
2023-04-10T22:26:53.341Z,1.02
2023-04-10T22:29:21.777Z,1.15
2023-04-10T22:31:50.084Z,1.02
2023-04-10T22:34:26.558Z,1.20
2023-04-10T22:36:54.926Z,1.00
2023-04-10T22:39:23.145Z,1.05
2023-04-10T22:41:53.565Z,0.75
2023-04-10T22:44:21.814Z,1.42
2023-04-10T22:46:52.168Z,1.13
2023-04-10T22:49:21.800Z,0.98
2023-04-10T22:51:50.010Z,1.88
2023-04-10T22:54:18.253Z,1.00
2023-04-10T22:56:48.868Z,1.30
2023-04-10T22:59:19.448Z,2.25
2023-04-10T23:01:50.228Z,2.15
2023-04-10T23:04:18.726Z,2.50
2023-04-10T23:06:48.419Z,2.05
2023-04-10T23:09:16.833Z,3.40
2023-04-10T23:11:47.479Z,2.70
2023-04-10T23:14:15.698Z,2.60
2023-04-10T23:16:46.851Z,2.42
2023-04-10T23:19:15.208Z,3.03
2023-04-10T23:21:45.743Z,3.80
2023-04-10T23:24:15.536Z,2.65
2023-04-10T23:26:43.971Z,4.13
2023-04-10T23:29:12.190Z,3.00
2023-04-10T23:31:40.604Z,3.25
2023-04-10T23:34:13.670Z,3.58
2023-04-10T23:36:42.048Z,3.67
2023-04-10T23:39:10.468Z,5.47
2023-04-10T23:41:40.055Z,4.35
2023-04-10T23:44:08.306Z,3.53
2023-04-10T23:46:36.639Z,3.38
2023-04-10T23:49:04.941Z,4.35
2023-04-10T23:51:33.233Z,3.00
2023-04-10T23:54:03.937Z,2.33
2023-04-10T23:56:36.765Z,2.53
2023-04-10T23:59:06.754Z,4.50
